Time;durP1;ratioP1;P1;durP2;ratioP2;P2;SDS_P1;SDS_P2;PMS_P1;PMS_P2;Temp;Humidity;BMP_temperature;BMP_pressure;BME280_temperature;BME280_humidity;BME280_pressure;Samples;Min_cycle;Max_cycle;Signal;HPM_P1;HPM_P2
2022/08/18 00:01:22;;;;;;;18.42;10.40;;;;;;;23.13;55.12;99500.41;5001896;28;20369;-86
2022/08/18 00:03:50;;;;;;;18.50;11.23;;;;;;;23.14;55.31;99513.72;5001038;28;20136;-81
2022/08/18 00:06:28;;;;;;;14.27;10.52;;;;;;;23.16;55.49;99513.50;5031954;28;20054;-83
2022/08/18 00:09:00;;;;;;;13.85;10.02;;;;;;;23.07;55.69;99528.38;5035847;28;20088;-81
2022/08/18 00:11:28;;;;;;;15.55;10.50;;;;;;;23.11;55.48;99541.25;5002523;28;20049;-81
2022/08/18 00:14:16;;;;;;;15.50;10.20;;;;;;;23.15;55.37;99556.00;5000410;28;20401;-81
2022/08/18 00:16:51;;;;;;;15.10;10.90;;;;;;;23.27;55.10;99566.91;5029653;28;20045;-81
2022/08/18 00:19:17;;;;;;;15.13;10.07;;;;;;;23.29;55.20;99574.81;4999872;28;20049;-81
2022/08/18 00:21:44;;;;;;;17.92;10.93;;;;;;;23.31;55.07;99565.41;5004617;28;20140;-81
2022/08/18 00:24:11;;;;;;;15.25;10.65;;;;;;;23.38;54.80;99579.72;5019097;28;20038;-83
2022/08/18 00:26:38;;;;;;;18.25;11.05;;;;;;;23.42;54.69;99584.69;5018592;28;20497;-83
2022/08/18 00:29:07;;;;;;;15.60;10.60;;;;;;;23.45;54.99;99582.34;5033554;28;20077;-82
2022/08/18 00:31:33;;;;;;;14.48;10.82;;;;;;;23.40;55.00;99598.44;5034853;28;20493;-83
2022/08/18 00:34:00;;;;;;;18.13;10.63;;;;;;;23.36;55.41;99592.66;5020701;28;20058;-83
2022/08/18 00:36:27;;;;;;;12.60;10.63;;;;;;;23.34;55.53;99591.22;5018936;28;20046;-83
2022/08/18 00:38:54;;;;;;;18.70;11.30;;;;;;;23.32;55.92;99582.50;5034798;28;20057;-83
2022/08/18 00:41:25;;;;;;;16.00;10.98;;;;;;;23.27;55.87;99580.44;5024018;28;20052;-85
2022/08/18 00:43:53;;;;;;;13.50;10.40;;;;;;;23.25;56.26;99574.44;5018507;28;20116;-85
2022/08/18 00:46:23;;;;;;;12.57;10.40;;;;;;;23.23;56.50;99575.69;4999731;28;20157;-85
2022/08/18 00:48:51;;;;;;;12.82;10.13;;;;;;;23.21;56.51;99575.13;5020177;28;20048;-85
2022/08/18 00:51:22;;;;;;;13.40;10.02;;;;;;;23.14;56.92;99569.75;5019107;28;20037;-86
2022/08/18 00:53:58;;;;;;;15.13;10.90;;;;;;;23.14;56.73;99559.75;5033041;28;20133;-86
2022/08/18 00:56:30;;;;;;;15.07;10.45;;;;;;;23.12;56.88;99569.16;4970260;28;20071;-86
2022/08/18 00:59:13;;;;;;;12.63;10.30;;;;;;;22.94;57.87;99561.81;5000001;28;20041;-86
2022/08/18 01:01:41;;;;;;;15.48;10.70;;;;;;;23.11;57.03;99571.03;5027908;28;20046;-86
2022/08/18 01:04:16;;;;;;;13.88;10.18;;;;;;;23.02;57.64;99563.44;5000589;28;20129;-86
2022/08/18 01:06:50;;;;;;;16.20;10.38;;;;;;;23.02;57.97;99564.25;5035167;28;20038;-81
2022/08/18 01:09:17;;;;;;;16.15;11.15;;;;;;;23.09;57.48;99566.91;5033863;28;20033;-81
2022/08/18 01:11:44;;;;;;;16.52;10.25;;;;;;;23.07;57.21;99561.69;5001420;28;20054;-81
2022/08/18 01:14:14;;;;;;;15.63;10.27;;;;;;;23.08;57.47;99562.56;5032115;28;20100;-81
2022/08/18 01:22:38;;;;;;;18.45;11.00;;;;;;;22.81;59.18;99561.94;5014138;28;20052;-85
2022/08/18 01:27:55;;;;;;;14.48;11.00;;;;;;;22.96;58.06;99570.53;5021076;28;20045;-84
2022/08/18 01:30:26;;;;;;;14.05;9.95;;;;;;;22.98;58.26;99567.66;5012696;28;20045;-86
2022/08/18 01:32:57;;;;;;;15.60;11.05;;;;;;;22.92;58.78;99563.91;5031880;28;20469;-84
2022/08/18 01:35:26;;;;;;;15.05;10.48;;;;;;;22.96;58.45;99570.53;5032653;28;20054;-84
2022/08/18 01:37:53;;;;;;;14.77;10.45;;;;;;;22.95;58.38;99561.59;5018265;28;20103;-84
2022/08/18 01:40:22;;;;;;;16.35;10.27;;;;;;;22.91;58.70;99565.78;5003900;28;20552;-82
2022/08/18 01:43:10;;;;;;;17.95;10.45;;;;;;;22.88;59.19;99560.00;5058783;28;20046;-81
2022/08/18 01:45:37;;;;;;;13.63;10.68;;;;;;;22.93;58.64;99555.56;5019176;28;20065;-82
2022/08/18 01:48:04;;;;;;;14.27;10.45;;;;;;;22.94;58.68;99549.09;5002744;28;20053;-81
2022/08/18 01:50:33;;;;;;;14.98;11.30;;;;;;;22.94;59.01;99559.09;5033522;28;20456;-81
2022/08/18 01:53:04;;;;;;;13.55;10.27;;;;;;;22.92;59.29;99553.91;5034378;28;20042;-81
2022/08/18 01:55:35;;;;;;;13.68;10.77;;;;;;;22.91;59.65;99549.53;4982025;28;20406;-83
2022/08/18 01:58:03;;;;;;;17.48;10.85;;;;;;;22.89;59.43;99543.50;5015893;28;20050;-84
2022/08/18 02:00:31;;;;;;;18.13;10.88;;;;;;;22.88;59.53;99538.34;5017645;28;20061;-84
2022/08/18 02:02:59;;;;;;;16.10;10.35;;;;;;;22.85;59.69;99534.19;5005505;28;20068;-84
2022/08/18 02:05:48;;;;;;;13.98;9.35;;;;;;;22.62;60.37;99529.41;5007078;28;20472;-83
2022/08/18 02:08:15;;;;;;;11.73;9.88;;;;;;;22.81;59.47;99532.97;5002172;28;20084;-86
2022/08/18 02:10:42;;;;;;;13.27;9.90;;;;;;;22.81;59.46;99527.56;5039296;28;20413;-85
2022/08/18 02:13:08;;;;;;;14.75;10.77;;;;;;;22.76;59.67;99522.00;5037815;28;20049;-86
2022/08/18 02:15:35;;;;;;;14.23;10.10;;;;;;;22.78;59.50;99516.38;5021841;28;20132;-86
2022/08/18 02:18:02;;;;;;;12.93;9.82;;;;;;;22.80;59.69;99522.41;5005535;28;20486;-86
2022/08/18 02:20:29;;;;;;;14.63;9.73;;;;;;;22.81;59.85;99518.63;4984091;28;20393;-83
2022/08/18 02:22:57;;;;;;;14.02;9.95;;;;;;;22.75;59.84;99512.22;5003781;28;20054;-83
2022/08/18 02:25:24;;;;;;;14.00;10.40;;;;;;;22.72;60.21;99509.97;5037215;28;20042;-83
2022/08/18 02:27:50;;;;;;;15.73;9.98;;;;;;;22.68;60.77;99509.56;5020742;28;20053;-83
2022/08/18 02:30:19;;;;;;;14.88;10.52;;;;;;;22.69;61.49;99508.50;5006094;28;20045;-83
2022/08/18 02:32:45;;;;;;;13.68;10.52;;;;;;;22.69;61.59;99504.97;5036430;28;20038;-81
2022/08/18 02:35:12;;;;;;;11.20;9.35;;;;;;;22.73;60.55;99500.78;5014798;28;20056;-82
2022/08/18 02:37:40;;;;;;;12.93;10.52;;;;;;;22.73;60.22;99500.78;5005078;28;20045;-81
2022/08/18 02:40:11;;;;;;;15.63;9.57;;;;;;;22.73;58.64;99500.78;5023763;28;20474;-81
2022/08/18 02:42:42;;;;;;;15.10;9.25;;;;;;;22.73;59.42;99495.38;5022969;28;20077;-81
2022/08/18 02:45:09;;;;;;;15.15;10.15;;;;;;;22.68;60.91;99497.94;5038351;28;20049;-86
2022/08/18 02:47:36;;;;;;;14.65;10.00;;;;;;;22.67;60.83;99490.84;5008749;28;20054;-84
2022/08/18 02:50:03;;;;;;;13.80;9.90;;;;;;;22.64;61.36;99481.28;5036328;28;20046;-84
2022/08/18 02:52:36;;;;;;;14.13;9.93;;;;;;;22.58;61.55;99482.19;5035800;28;20473;-84
2022/08/18 02:55:07;;;;;;;15.40;9.63;;;;;;;22.63;60.44;99474.22;5051578;28;20045;-82
2022/08/18 02:57:33;;;;;;;11.98;9.25;;;;;;;22.57;60.59;99467.03;5037361;28;20050;-81
2022/08/18 03:00:00;;;;;;;14.52;10.18;;;;;;;22.51;61.37;99457.06;5005650;28;20046;-81
2022/08/18 03:02:27;;;;;;;19.13;8.82;;;;;;;22.50;61.86;99452.72;5021046;28;20129;-81
2022/08/18 03:04:53;;;;;;;14.30;9.25;;;;;;;22.46;62.21;99452.31;5037518;28;20125;-81
2022/08/18 03:07:22;;;;;;;13.95;9.45;;;;;;;22.50;60.97;99444.59;5005372;28;20124;-83
2022/08/18 03:09:59;;;;;;;13.85;9.48;;;;;;;22.50;61.23;99447.31;4836345;28;20183;-83
2022/08/18 03:12:25;;;;;;;14.35;8.82;;;;;;;22.49;60.66;99432.97;4907528;29;20480;-86
2022/08/18 03:14:51;;;;;;;13.43;8.02;;;;;;;22.48;58.87;99419.63;4884077;29;20047;-86
2022/08/18 03:17:16;;;;;;;9.13;8.02;;;;;;;22.47;58.77;99418.81;4879216;29;20396;-85
2022/08/18 03:19:44;;;;;;;10.93;7.80;;;;;;;22.53;58.77;99420.63;4872255;29;20028;-81
2022/08/18 03:22:14;;;;;;;13.90;8.25;;;;;;;22.45;58.04;99425.50;4858214;29;20059;-81
2022/08/18 03:24:41;;;;;;;10.30;8.32;;;;;;;22.50;58.44;99434.59;4854458;29;20076;-81
2022/08/18 03:27:07;;;;;;;10.73;8.18;;;;;;;22.59;57.99;99440.53;4903084;29;20532;-81
2022/08/18 03:29:34;;;;;;;11.82;8.20;;;;;;;22.61;58.44;99445.75;4875320;29;20114;-81
2022/08/18 03:32:01;;;;;;;11.57;8.27;;;;;;;22.53;58.98;99449.56;4865601;29;20036;-83
2022/08/18 03:34:26;;;;;;;13.15;8.15;;;;;;;22.50;59.07;99441.91;4871416;29;20033;-81
2022/08/18 03:36:53;;;;;;;10.85;7.53;;;;;;;22.42;59.71;99437.59;4952920;28;20117;-81
2022/08/18 03:39:22;;;;;;;16.45;8.63;;;;;;;22.41;60.11;99435.91;5001600;28;20049;-81
2022/08/18 03:41:53;;;;;;;13.75;8.60;;;;;;;22.37;60.42;99442.84;5001863;28;20045;-81
2022/08/18 03:44:35;;;;;;;11.40;8.25;;;;;;;22.30;61.26;99445.59;5017586;28;20100;-82
2022/08/18 03:47:03;;;;;;;9.82;7.97;;;;;;;22.39;60.53;99439.91;5008788;28;20047;-81
2022/08/18 03:49:32;;;;;;;11.10;7.95;;;;;;;22.41;60.36;99440.50;4995293;28;20046;-86
2022/08/18 03:51:59;;;;;;;12.77;8.45;;;;;;;22.32;60.90;99439.97;5003102;28;20044;-86
2022/08/18 03:54:27;;;;;;;14.27;7.78;;;;;;;22.32;60.95;99438.09;5007208;28;20104;-86
2022/08/18 03:56:59;;;;;;;11.02;8.10;;;;;;;22.29;60.78;99441.25;4987694;28;20378;-86
2022/08/18 03:59:30;;;;;;;12.30;8.45;;;;;;;22.33;60.53;99438.91;4998153;28;20149;-86
2022/08/18 04:01:57;;;;;;;12.05;8.57;;;;;;;22.31;60.75;99439.16;5004604;28;20042;-82
2022/08/18 04:04:26;;;;;;;10.15;7.90;;;;;;;22.27;61.14;99435.22;5004956;28;20053;-83
2022/08/18 04:06:59;;;;;;;8.93;7.78;;;;;;;22.23;61.03;99444.81;5003813;28;20133;-82
2022/08/18 04:09:28;;;;;;;13.90;7.70;;;;;;;22.24;60.64;99442.97;4997316;28;20504;-86
2022/08/18 04:11:56;;;;;;;11.48;8.63;;;;;;;22.22;60.90;99445.06;5018696;28;20126;-85
2022/08/18 04:14:25;;;;;;;12.70;8.43;;;;;;;22.25;61.33;99442.72;5020228;28;20052;-86
2022/08/18 04:16:52;;;;;;;10.18;8.25;;;;;;;22.21;60.84;99451.50;5019231;28;20120;-86
2022/08/18 04:19:18;;;;;;;9.93;8.32;;;;;;;22.25;60.17;99458.97;5029201;28;20048;-88
2022/08/18 04:21:54;;;;;;;10.40;7.97;;;;;;;22.22;60.67;99458.59;5027152;28;20046;-88
2022/08/18 04:24:21;;;;;;;9.60;7.72;;;;;;;22.08;60.93;99455.97;5005072;28;20046;-87
2022/08/18 04:26:48;;;;;;;14.52;8.07;;;;;;;22.18;59.98;99455.44;5002497;28;20455;-88
2022/08/18 04:29:17;;;;;;;11.35;8.05;;;;;;;22.11;60.81;99455.53;5020183;28;20038;-87
2022/08/18 04:31:44;;;;;;;11.32;8.32;;;;;;;22.15;61.37;99452.38;5012112;28;20049;-90
2022/08/18 04:34:28;;;;;;;11.85;8.40;;;;;;;21.89;62.00;99457.75;5002138;28;20054;-88
2022/08/18 04:36:55;;;;;;;11.88;7.75;;;;;;;22.10;61.10;99464.66;5016311;28;20052;-76
2022/08/18 04:39:22;;;;;;;10.70;7.22;;;;;;;22.11;61.09;99462.81;5000697;28;20045;-83
2022/08/18 04:41:49;;;;;;;10.05;7.80;;;;;;;22.10;60.65;99471.94;4970726;28;20115;-85
2022/08/18 04:44:17;;;;;;;12.55;7.97;;;;;;;22.13;60.64;99474.22;5015224;28;20042;-83
2022/08/18 04:46:47;;;;;;;12.13;8.20;;;;;;;22.10;60.15;99466.53;5003905;28;20042;-86
2022/08/18 04:49:15;;;;;;;12.50;8.00;;;;;;;22.14;60.15;99466.94;4974986;28;20099;-85
2022/08/18 04:53:43;;;;;;;10.07;7.90;;;;;;;22.09;60.37;99467.59;5016111;28;20132;-85
2022/08/18 04:54:54;;;;;;;11.73;8.10;;;;;;;22.12;60.04;99472.56;4947606;28;20078;-86
2022/08/18 04:57:21;;;;;;;11.70;8.27;;;;;;;22.11;60.22;99477.16;4996472;28;20041;-86
2022/08/18 04:59:50;;;;;;;12.63;8.15;;;;;;;22.10;60.10;99469.25;5002012;28;20049;-86
2022/08/18 05:02:19;;;;;;;13.13;8.05;;;;;;;22.10;60.02;99474.66;5018585;28;20153;-85
2022/08/18 05:04:46;;;;;;;16.00;7.97;;;;;;;22.08;59.71;99465.94;5032151;28;20069;-85
2022/08/18 05:07:16;;;;;;;13.85;8.77;;;;;;;22.06;59.92;99465.34;5014972;28;20390;-85
2022/08/18 05:09:43;;;;;;;13.75;8.45;;;;;;;22.09;59.89;99471.13;5036031;28;20053;-86
2022/08/18 05:12:13;;;;;;;19.05;9.95;;;;;;;22.11;59.90;99466.34;5020829;28;20045;-86
2022/08/18 05:14:40;;;;;;;19.90;8.50;;;;;;;22.17;59.90;99477.31;4996066;28;20093;-86
2022/08/18 05:17:07;;;;;;;14.60;8.50;;;;;;;22.14;60.29;99486.69;5018361;28;20046;-86
2022/08/18 05:19:34;;;;;;;13.65;7.63;;;;;;;22.17;59.88;99486.25;5011761;28;20062;-86
2022/08/18 05:22:07;;;;;;;13.43;8.10;;;;;;;22.16;59.71;99497.28;5018745;28;20184;-86
2022/08/18 05:24:38;;;;;;;12.07;8.02;;;;;;;22.17;60.16;99502.47;5029046;28;20065;-86
2022/08/18 05:27:06;;;;;;;12.98;8.50;;;;;;;22.14;60.48;99504.81;4998960;28;20053;-86
2022/08/18 05:29:35;;;;;;;9.18;7.75;;;;;;;22.13;60.96;99512.06;5032956;28;20401;-86
2022/08/18 05:32:12;;;;;;;12.48;8.48;;;;;;;22.09;61.17;99509.00;5011248;28;20054;-86
2022/08/18 05:35:07;;;;;;;11.23;7.57;;;;;;;22.04;61.38;99508.81;4953685;28;20046;-86
2022/08/18 05:37:53;;;;;;;13.63;8.77;;;;;;;22.09;61.36;99509.00;5015423;28;20045;-86
2022/08/18 05:40:23;;;;;;;13.80;7.97;;;;;;;22.18;60.81;99509.53;4966278;28;20045;-86
2022/08/18 05:42:50;;;;;;;15.70;8.35;;;;;;;22.22;60.82;99507.28;4984724;28;20449;-87
2022/08/18 05:45:18;;;;;;;10.43;7.55;;;;;;;22.22;60.70;99504.56;5035028;28;20057;-85
2022/08/18 05:47:44;;;;;;;16.77;8.68;;;;;;;22.21;60.61;99500.19;4985903;28;20042;-86
2022/08/18 05:50:17;;;;;;;11.88;9.00;;;;;;;22.19;60.80;99494.16;5030459;28;20069;-86
2022/08/18 05:53:07;;;;;;;13.15;8.35;;;;;;;22.23;60.83;99489.97;5015383;28;20470;-86
2022/08/18 05:58:33;;;;;;;11.40;8.68;;;;;;;22.18;60.58;99487.91;5011612;28;20505;-87
2022/08/18 06:01:07;;;;;;;11.50;8.38;;;;;;;22.15;61.03;99482.13;5001128;28;20068;-88
2022/08/18 06:08:21;;;;;;;13.02;8.65;;;;;;;22.22;60.29;99466.69;4989041;28;20439;-88
2022/08/18 06:10:50;;;;;;;12.13;8.25;;;;;;;22.27;60.50;99462.28;5008872;28;20129;-86
2022/08/18 06:13:18;;;;;;;12.40;7.93;;;;;;;22.28;60.53;99465.81;5018230;28;20050;-86
2022/08/18 06:16:09;;;;;;;11.90;8.45;;;;;;;22.26;60.72;99462.50;5030185;28;20049;-86
2022/08/18 06:18:40;;;;;;;9.63;8.27;;;;;;;22.33;60.46;99469.50;4999213;28;20402;-86
2022/08/18 06:21:15;;;;;;;16.15;8.88;;;;;;;22.43;60.13;99473.59;5017340;28;20100;-86
2022/08/18 06:24:19;;;;;;;10.70;8.80;;;;;;;22.20;60.83;99477.72;5031392;28;20468;-86
2022/08/18 06:27:10;;;;;;;14.65;9.55;;;;;;;22.24;60.74;99486.25;4997298;28;20038;-87
2022/08/18 06:30:04;;;;;;;12.98;8.82;;;;;;;22.27;60.57;99475.81;5013057;28;20050;-88
2022/08/18 06:32:53;;;;;;;11.45;8.38;;;;;;;22.28;60.81;99496.38;5009394;28;20045;-82
2022/08/18 06:35:37;;;;;;;13.70;8.95;;;;;;;22.26;60.85;99493.09;5029005;28;20062;-83
2022/08/18 06:41:12;;;;;;;12.75;9.45;;;;;;;22.26;61.29;99484.97;4952607;28;20092;-86
2022/08/18 06:44:06;;;;;;;11.18;8.57;;;;;;;22.30;61.19;99486.19;4997800;28;20489;-86
2022/08/18 06:46:36;;;;;;;14.98;8.60;;;;;;;22.32;60.98;99478.69;5001531;28;20498;-86
2022/08/18 06:49:06;;;;;;;12.48;9.70;;;;;;;22.37;60.80;99486.13;5004774;28;20140;-86
2022/08/18 06:51:33;;;;;;;14.50;8.95;;;;;;;22.36;60.96;99494.47;4997086;28;20042;-86
2022/08/18 06:54:25;;;;;;;16.23;8.95;;;;;;;22.35;61.02;99509.88;5020337;28;20069;-86
2022/08/18 06:56:54;;;;;;;14.38;8.68;;;;;;;22.36;61.37;99516.09;5034951;28;20046;-86
2022/08/18 06:59:23;;;;;;;16.73;10.45;;;;;;;22.39;61.15;99516.50;5035530;28;20428;-82
2022/08/18 07:01:53;;;;;;;15.20;10.18;;;;;;;22.43;60.80;99517.69;5020578;28;20729;-86
2022/08/18 07:04:30;;;;;;;14.15;9.75;;;;;;;22.36;61.14;99527.75;5022855;28;20060;-86
2022/08/18 07:06:58;;;;;;;15.15;9.48;;;;;;;22.45;60.70;99531.03;5037244;28;20048;-86
2022/08/18 07:09:32;;;;;;;14.68;10.55;;;;;;;22.44;61.01;99540.16;5033991;28;20050;-87
2022/08/18 07:12:06;;;;;;;14.95;10.20;;;;;;;22.48;60.85;99535.97;5033720;28;20060;-87
2022/08/18 07:14:43;;;;;;;15.63;10.55;;;;;;;22.43;61.28;99533.13;5050639;28;20128;-86
2022/08/18 07:17:13;;;;;;;17.85;11.13;;;;;;;22.51;60.58;99530.94;4998649;28;20050;-86
2022/08/18 07:19:40;;;;;;;15.13;10.63;;;;;;;22.53;60.66;99520.72;5018678;28;20061;-86
2022/08/18 07:22:16;;;;;;;15.00;10.55;;;;;;;22.48;61.45;99508.94;4996109;28;20061;-86
2022/08/18 07:24:45;;;;;;;14.43;9.73;;;;;;;22.56;60.94;99507.81;5018026;28;20049;-86
2022/08/18 07:27:40;;;;;;;12.57;9.60;;;;;;;22.54;61.19;99502.63;5004014;28;20057;-86
2022/08/18 07:30:37;;;;;;;17.50;10.77;;;;;;;22.50;61.21;99513.06;5018991;28;20049;-89
2022/08/18 07:33:11;;;;;;;17.60;10.65;;;;;;;22.52;61.17;99507.44;4958974;28;20046;-87
2022/08/18 07:36:02;;;;;;;18.38;10.13;;;;;;;22.50;61.25;99510.38;5002614;28;20050;-87
2022/08/18 07:38:41;;;;;;;13.80;9.75;;;;;;;22.52;61.48;99512.84;5030406;28;20061;-87
2022/08/18 07:41:25;;;;;;;14.65;10.27;;;;;;;22.46;61.89;99511.84;5020982;28;20041;-87
2022/08/18 07:44:02;;;;;;;14.70;10.35;;;;;;;22.54;61.62;99525.13;5048559;28;20057;-87
2022/08/18 07:46:38;;;;;;;15.18;10.50;;;;;;;22.59;61.85;99519.00;5019053;28;20050;-87
2022/08/18 07:49:06;;;;;;;14.32;9.68;;;;;;;22.67;61.26;99515.19;5034111;28;20038;-87
2022/08/18 07:52:03;;;;;;;18.38;10.82;;;;;;;22.60;61.85;99512.56;4994688;28;20459;-87
2022/08/18 07:54:54;;;;;;;22.23;10.27;;;;;;;22.67;61.85;99515.19;5031426;28;20396;-87
2022/08/18 07:57:36;;;;;;;20.55;10.40;;;;;;;22.75;61.43;99517.66;5030474;28;20497;-87
2022/08/18 08:00:24;;;;;;;18.83;10.60;;;;;;;22.79;61.43;99510.72;5015754;28;20068;-87
2022/08/18 08:03:40;;;;;;;19.80;10.68;;;;;;;22.60;61.93;99512.56;4996371;28;20050;-87
2022/08/18 08:06:19;;;;;;;14.10;10.32;;;;;;;22.64;61.98;99519.19;4995197;28;20038;-86
2022/08/18 08:08:53;;;;;;;14.50;10.75;;;;;;;22.69;61.58;99527.47;5030245;28;20053;-86
2022/08/18 08:11:51;;;;;;;14.65;10.75;;;;;;;22.54;62.21;99530.53;5035953;28;20409;-86
2022/08/18 08:14:25;;;;;;;20.77;10.70;;;;;;;22.66;61.78;99533.31;4992674;28;20054;-86
2022/08/18 08:17:16;;;;;;;17.02;11.70;;;;;;;22.51;62.34;99535.53;5018102;28;20639;-86
2022/08/18 08:19:55;;;;;;;15.07;11.38;;;;;;;22.71;61.58;99540.78;5026767;28;20053;-86
2022/08/18 08:22:51;;;;;;;18.58;11.65;;;;;;;22.61;62.11;99535.03;4996718;28;20050;-87
2022/08/18 08:25:24;;;;;;;19.10;11.05;;;;;;;22.65;62.43;99536.25;5027780;28;20072;-87
2022/08/18 08:28:20;;;;;;;17.50;11.07;;;;;;;22.59;62.07;99527.13;5012708;28;20046;-86
2022/08/18 08:30:57;;;;;;;15.68;11.52;;;;;;;22.64;62.23;99532.72;5032611;28;20048;-88
2022/08/18 08:33:49;;;;;;;18.30;11.57;;;;;;;22.70;61.88;99537.25;5002308;28;20054;-88
2022/08/18 08:36:33;;;;;;;13.95;11.82;;;;;;;22.64;62.23;99535.41;4998318;28;20046;-89
2022/08/18 08:39:11;;;;;;;17.55;11.65;;;;;;;22.72;61.91;99539.75;4987110;28;20046;-88
2022/08/18 08:42:00;;;;;;;18.25;11.77;;;;;;;22.62;62.60;99550.22;4973624;28;20050;-88
2022/08/18 08:45:21;;;;;;;18.88;10.95;;;;;;;22.60;62.69;99560.47;4967718;28;20049;-88
2022/08/18 08:48:16;;;;;;;15.80;11.80;;;;;;;22.69;62.60;99575.34;4989074;28;20045;-83
2022/08/18 08:51:26;;;;;;;17.77;11.88;;;;;;;22.62;62.63;99574.56;4987386;28;20046;-88
2022/08/18 08:54:22;;;;;;;18.67;12.88;;;;;;;22.59;62.91;99575.84;4941850;28;20050;-88
2022/08/18 08:56:51;;;;;;;15.48;12.10;;;;;;;22.71;62.29;99581.38;5018388;28;20052;-86
2022/08/18 08:59:21;;;;;;;19.85;12.40;;;;;;;22.75;62.22;99580.72;5001807;28;20055;-88
2022/08/18 09:02:09;;;;;;;18.83;12.15;;;;;;;22.73;62.28;99582.81;5034811;28;20050;-88
2022/08/18 09:05:04;;;;;;;19.67;11.98;;;;;;;22.66;62.65;99584.75;5027455;28;20041;-88
2022/08/18 09:08:02;;;;;;;14.02;11.70;;;;;;;22.65;62.58;99587.69;5016121;28;20471;-86
2022/08/18 09:11:10;;;;;;;15.48;12.38;;;;;;;22.68;62.72;99587.25;5022698;28;20049;-86
2022/08/18 09:14:20;;;;;;;18.85;12.18;;;;;;;22.62;62.69;99593.50;4953285;28;20037;-86
2022/08/18 09:17:17;;;;;;;17.05;11.85;;;;;;;22.65;62.62;99596.63;5004561;28;20049;-86
2022/08/18 09:20:00;;;;;;;19.98;11.77;;;;;;;22.62;62.92;99591.66;5013530;28;20049;-86
2022/08/18 09:22:35;;;;;;;16.92;11.70;;;;;;;22.71;62.50;99586.78;5047836;28;20073;-86
2022/08/18 09:25:09;;;;;;;16.88;11.35;;;;;;;22.66;62.97;99592.03;5003103;28;20042;-87
2022/08/18 09:27:36;;;;;;;15.80;12.05;;;;;;;22.73;62.42;99601.75;4974951;28;22396;-88
2022/08/18 09:30:36;;;;;;;18.85;12.25;;;;;;;22.61;63.14;99595.41;4937086;28;20545;-88
2022/08/18 09:33:24;;;;;;;16.38;11.70;;;;;;;22.59;64.52;99575.84;4983072;28;20093;-89
2022/08/18 09:35:59;;;;;;;15.52;12.05;;;;;;;22.62;63.80;99552.91;4987844;28;20100;-83
2022/08/18 09:41:51;;;;;;;18.98;13.05;;;;;;;22.50;66.26;99513.06;4928327;28;20498;-83
2022/08/18 09:44:47;;;;;;;17.42;12.68;;;;;;;22.26;67.62;99520.16;4982370;28;20046;-84
2022/08/18 09:47:19;;;;;;;24.55;14.10;;;;;;;22.41;67.54;99522.50;4892587;28;20494;-84
2022/08/18 09:49:52;;;;;;;23.15;14.82;;;;;;;22.53;68.01;99520.72;4972860;28;20054;-87
2022/08/18 09:52:20;;;;;;;20.08;13.23;;;;;;;22.64;66.82;99529.19;4982297;28;20047;-87
2022/08/18 09:54:51;;;;;;;18.80;14.80;;;;;;;22.65;66.44;99544.38;4977764;28;20142;-87
2022/08/18 09:57:27;;;;;;;20.92;14.10;;;;;;;22.62;66.33;99550.22;4951854;28;20093;-87
2022/08/18 10:00:03;;;;;;;20.65;15.45;;;;;;;22.66;66.26;99537.91;4990238;28;20065;-86
2022/08/18 10:02:35;;;;;;;22.20;14.95;;;;;;;22.81;65.82;99532.16;5033092;28;20474;-87
2022/08/18 10:05:14;;;;;;;19.90;14.38;;;;;;;22.74;67.25;99527.66;5002070;28;20060;-87
2022/08/18 10:07:43;;;;;;;18.92;14.60;;;;;;;22.73;67.37;99523.25;5027815;28;20058;-87
2022/08/18 10:10:48;;;;;;;20.40;14.90;;;;;;;22.76;68.01;99512.00;5002029;28;20099;-87
2022/08/18 10:14:01;;;;;;;19.85;14.40;;;;;;;22.56;68.42;99532.16;4980434;28;20042;-88
2022/08/18 10:17:05;;;;;;;20.20;14.80;;;;;;;22.69;66.89;99532.03;4994054;28;20077;-87
2022/08/18 10:20:08;;;;;;;26.25;15.70;;;;;;;22.72;67.76;99527.03;4942685;28;20053;-88
2022/08/18 10:22:55;;;;;;;24.02;15.70;;;;;;;22.91;66.73;99527.88;5024111;28;20038;-86
2022/08/18 10:25:31;;;;;;;20.10;15.57;;;;;;;22.99;66.96;99536.81;5036755;28;20050;-87
2022/08/18 10:28:00;;;;;;;24.30;16.60;;;;;;;23.02;66.52;99534.47;5036144;28;20038;-88
2022/08/18 10:30:33;;;;;;;22.13;15.63;;;;;;;23.08;66.66;99541.69;5023213;28;20513;-86
2022/08/18 10:33:55;;;;;;;24.53;19.23;;;;;;;23.03;66.56;99543.44;5034641;28;20545;-88
2022/08/18 10:36:51;;;;;;;27.95;18.58;;;;;;;23.22;65.77;99525.31;5031939;28;20449;-88
2022/08/18 10:39:22;;;;;;;27.33;19.45;;;;;;;23.22;64.93;99509.03;4989653;28;20050;-87
2022/08/18 10:42:22;;;;;;;28.45;19.15;;;;;;;23.19;65.36;99503.03;5004968;28;20038;-87
2022/08/18 10:45:11;;;;;;;26.77;19.55;;;;;;;23.17;64.23;99494.28;5009228;28;20042;-88
2022/08/18 10:47:41;;;;;;;27.52;19.55;;;;;;;23.31;63.93;99478.72;5051685;28;20076;-88
2022/08/18 10:50:21;;;;;;;26.15;18.63;;;;;;;23.24;64.59;99477.16;5021364;28;20132;-87
2022/08/18 10:53:23;;;;;;;24.25;18.90;;;;;;;23.22;64.47;99480.06;5052124;28;20047;-88
2022/08/18 10:56:31;;;;;;;24.48;18.40;;;;;;;23.15;63.26;99482.88;4931873;28;20058;-88
2022/08/18 10:59:15;;;;;;;26.70;18.60;;;;;;;23.21;63.13;99467.59;4978655;28;20043;-89
2022/08/18 11:02:14;;;;;;;28.65;18.50;;;;;;;23.23;63.22;99451.09;4951574;28;20061;-86
2022/08/18 11:04:44;;;;;;;22.27;17.10;;;;;;;23.33;63.64;99438.69;4908574;28;20634;-87
2022/08/18 11:07:24;;;;;;;21.77;17.83;;;;;;;23.27;62.96;99434.16;4961323;28;20038;-87
2022/08/18 11:09:56;;;;;;;28.90;19.30;;;;;;;23.43;63.23;99418.31;4955603;28;20050;-87
2022/08/18 11:13:04;;;;;;;27.83;19.63;;;;;;;23.33;63.69;99408.88;4974539;28;20065;-88
2022/08/18 11:16:04;;;;;;;25.83;18.52;;;;;;;23.50;63.21;99416.34;4962555;28;20050;-87
2022/08/18 11:19:07;;;;;;;25.02;19.13;;;;;;;23.44;63.70;99433.53;4940085;28;20446;-88
2022/08/18 11:21:33;;;;;;;23.15;17.75;;;;;;;23.48;62.10;99430.13;4992499;28;20692;-87
2022/08/18 11:24:27;;;;;;;20.90;17.23;;;;;;;23.50;61.62;99413.66;4975846;28;20055;-88
2022/08/18 11:27:01;;;;;;;18.02;15.13;;;;;;;23.61;61.40;99429.97;4948710;28;20581;-89
2022/08/18 11:29:30;;;;;;;18.63;15.00;;;;;;;23.65;60.86;99427.59;5022147;28;20452;-84
2022/08/18 11:32:53;;;;;;;22.50;15.88;;;;;;;23.55;60.62;99425.44;5020681;28;20038;-84
2022/08/18 11:36:10;;;;;;;19.98;15.70;;;;;;;23.64;60.65;99444.13;4967234;28;20476;-84
2022/08/18 11:38:36;;;;;;;18.63;14.63;;;;;;;23.86;60.65;99449.84;4953820;28;20058;-87
2022/08/18 11:41:15;;;;;;;20.98;14.88;;;;;;;23.81;59.42;99448.69;5019731;28;20394;-87
2022/08/18 11:44:04;;;;;;;18.35;14.82;;;;;;;23.89;60.00;99444.81;4977673;28;20074;-87
2022/08/18 11:46:40;;;;;;;18.92;14.30;;;;;;;23.94;59.77;99441.38;5001430;28;20129;-87
2022/08/18 11:49:32;;;;;;;16.40;14.27;;;;;;;24.03;59.53;99439.97;5034812;28;20101;-87
2022/08/18 11:52:13;;;;;;;21.05;15.73;;;;;;;24.12;59.84;99443.16;5020142;28;20546;-88
2022/08/18 11:55:20;;;;;;;19.25;15.15;;;;;;;24.03;60.20;99429.94;4987632;28;20493;-87
2022/08/18 11:57:55;;;;;;;21.23;16.08;;;;;;;24.18;60.24;99431.41;4977668;28;20045;-88
2022/08/18 12:00:40;;;;;;;20.50;16.00;;;;;;;24.13;60.34;99428.56;5003079;28;20041;-86
2022/08/18 12:03:28;;;;;;;17.20;14.45;;;;;;;24.12;58.78;99424.19;5016463;28;20510;-87
2022/08/18 12:06:09;;;;;;;20.80;15.38;;;;;;;24.13;59.36;99423.97;5018090;28;20437;-86
2022/08/18 12:08:50;;;;;;;24.95;16.60;;;;;;;24.16;60.13;99419.94;5060751;28;20045;-87
2022/08/18 12:11:30;;;;;;;24.98;18.25;;;;;;;24.16;60.49;99418.06;5032249;28;20042;-86
2022/08/18 12:14:05;;;;;;;21.17;16.77;;;;;;;24.13;61.02;99415.00;5033666;28;20056;-87
2022/08/18 12:16:52;;;;;;;20.17;17.15;;;;;;;24.10;61.04;99405.44;5015027;28;20042;-87
2022/08/18 12:19:26;;;;;;;21.15;16.50;;;;;;;24.18;59.11;99406.97;4995635;28;20054;-87
2022/08/18 12:21:59;;;;;;;18.05;15.43;;;;;;;24.28;58.70;99404.50;5014188;28;20038;-86
2022/08/18 12:24:32;;;;;;;17.00;14.35;;;;;;;24.33;57.68;99396.47;5020818;28;20053;-86
2022/08/18 12:27:05;;;;;;;20.15;14.95;;;;;;;24.37;57.47;99392.22;5018094;28;20047;-86